createdAt,value
2017-06-18T00:01:19.617Z,99.90
2017-06-18T00:03:47.970Z,99.90
2017-06-18T00:06:16.289Z,99.90
2017-06-18T00:08:45.384Z,99.90
2017-06-18T00:11:14.738Z,99.90
2017-06-18T00:13:43.168Z,99.90
2017-06-18T00:16:11.489Z,99.90
2017-06-18T00:18:39.824Z,99.90
2017-06-18T00:21:08.185Z,99.90
2017-06-18T00:23:36.536Z,99.90
2017-06-18T00:26:04.852Z,99.90
2017-06-18T00:28:33.948Z,99.90
2017-06-18T00:31:02.265Z,99.90
2017-06-18T00:33:30.634Z,99.90
2017-06-18T00:35:59.377Z,99.90
2017-06-18T00:38:28.483Z,99.90
2017-06-18T00:40:56.826Z,99.90
2017-06-18T00:43:25.161Z,99.90
2017-06-18T00:45:54.280Z,99.90
2017-06-18T00:48:22.596Z,99.90
2017-06-18T00:50:51.719Z,99.90
2017-06-18T00:53:20.069Z,99.90
2017-06-18T00:55:48.785Z,99.90
2017-06-18T00:58:17.102Z,99.90
2017-06-18T01:00:45.452Z,99.90
2017-06-18T01:03:13.784Z,99.90
2017-06-18T01:05:42.184Z,99.90
2017-06-18T01:08:10.504Z,99.90
2017-06-18T01:10:38.836Z,99.90
2017-06-18T01:13:07.151Z,99.90
2017-06-18T01:15:35.488Z,99.90
2017-06-18T01:18:03.823Z,99.90
2017-06-18T01:20:32.149Z,99.90
2017-06-18T01:23:00.573Z,99.90
2017-06-18T01:25:28.904Z,99.90
2017-06-18T01:27:57.220Z,99.90
2017-06-18T01:30:25.585Z,99.90
2017-06-18T01:32:53.895Z,99.90
2017-06-18T01:35:22.227Z,99.90
2017-06-18T01:37:50.537Z,99.90
2017-06-18T01:40:18.884Z,99.90
2017-06-18T01:42:47.218Z,99.90
2017-06-18T01:45:16.316Z,99.90
2017-06-18T01:47:44.644Z,99.90
2017-06-18T01:50:12.997Z,99.90
2017-06-18T01:52:41.351Z,99.90
2017-06-18T01:55:10.454Z,99.90
2017-06-18T01:57:38.775Z,99.90
2017-06-18T02:00:07.135Z,99.90
2017-06-18T02:02:35.528Z,99.90
2017-06-18T02:05:03.845Z,99.90
2017-06-18T02:07:32.978Z,99.90
2017-06-18T02:10:01.313Z,99.90
2017-06-18T02:12:29.769Z,99.90
2017-06-18T02:14:58.085Z,99.90
2017-06-18T02:17:26.416Z,99.90
2017-06-18T02:19:54.775Z,99.90
2017-06-18T02:22:23.113Z,99.90
2017-06-18T02:24:51.450Z,99.90
2017-06-18T02:27:19.767Z,99.90
2017-06-18T02:29:48.129Z,99.90
2017-06-18T02:32:16.477Z,99.90
2017-06-18T02:34:44.824Z,99.90
2017-06-18T02:37:13.145Z,99.90
2017-06-18T02:39:41.461Z,99.90
2017-06-18T02:42:09.820Z,99.90
2017-06-18T02:44:38.962Z,99.90
2017-06-18T02:47:07.324Z,99.90
2017-06-18T02:49:35.636Z,99.90
2017-06-18T02:52:03.981Z,99.90
2017-06-18T02:54:32.299Z,99.90
2017-06-18T02:57:00.640Z,99.90
2017-06-18T02:59:28.952Z,99.90
2017-06-18T03:01:57.308Z,99.90
2017-06-18T03:04:25.663Z,99.90
2017-06-18T03:06:53.977Z,99.90
2017-06-18T03:09:22.284Z,99.90
2017-06-18T03:11:51.416Z,99.90
2017-06-18T03:14:19.745Z,99.90
2017-06-18T03:16:48.817Z,99.90
2017-06-18T03:19:17.188Z,99.90
2017-06-18T03:21:51.181Z,99.90
2017-06-18T03:24:21.376Z,99.90
2017-06-18T03:26:49.722Z,99.90
2017-06-18T03:29:18.832Z,99.90
2017-06-18T03:31:47.200Z,99.90
2017-06-18T03:34:15.525Z,99.90
2017-06-18T03:36:43.863Z,99.90
2017-06-18T03:39:12.208Z,99.90
2017-06-18T03:42:08.787Z,99.90
2017-06-18T03:44:37.105Z,99.90
2017-06-18T03:47:05.442Z,99.90
2017-06-18T03:49:33.760Z,99.90
2017-06-18T03:52:02.149Z,99.90
2017-06-18T03:54:30.482Z,99.90
2017-06-18T03:56:58.803Z,99.90
2017-06-18T03:59:27.110Z,99.90
2017-06-18T04:01:56.212Z,99.90
2017-06-18T04:04:24.540Z,99.90
2017-06-18T04:06:52.876Z,99.90
2017-06-18T04:09:21.210Z,99.90
2017-06-18T04:11:49.572Z,99.90
2017-06-18T04:14:17.909Z,99.90
2017-06-18T04:16:46.254Z,99.90
2017-06-18T04:19:15.336Z,99.90
2017-06-18T04:21:43.671Z,99.90
2017-06-18T04:24:11.991Z,99.90
2017-06-18T04:26:40.413Z,99.90
2017-06-18T04:29:08.725Z,99.90
2017-06-18T04:31:37.073Z,99.90
2017-06-18T04:34:05.460Z,99.90
2017-06-18T04:36:33.769Z,99.90
2017-06-18T04:39:02.108Z,99.90
2017-06-18T04:41:30.433Z,99.90
2017-06-18T04:43:58.791Z,99.90
2017-06-18T04:46:27.106Z,99.90
2017-06-18T04:48:55.400Z,99.90
2017-06-18T04:51:23.752Z,99.90
2017-06-18T04:53:52.822Z,99.90
2017-06-18T04:56:21.173Z,99.90
2017-06-18T04:58:49.480Z,99.90
2017-06-18T05:01:17.825Z,99.90
2017-06-18T05:03:46.144Z,99.90
2017-06-18T05:06:14.496Z,99.90
2017-06-18T05:08:42.820Z,99.90
2017-06-18T05:11:11.174Z,99.90
2017-06-18T05:13:39.534Z,99.90
2017-06-18T05:16:07.840Z,99.90
2017-06-18T05:18:36.160Z,99.90
2017-06-18T05:21:04.508Z,99.90
2017-06-18T05:23:32.789Z,99.90
2017-06-18T05:26:01.125Z,99.90
2017-06-18T05:28:29.445Z,99.90
2017-06-18T05:30:57.824Z,99.90
2017-06-18T05:33:26.140Z,99.90
2017-06-18T05:35:54.485Z,99.90
2017-06-18T05:38:22.843Z,99.90
2017-06-18T05:40:51.154Z,99.90
2017-06-18T05:43:19.477Z,99.90
2017-06-18T05:45:47.808Z,99.90
2017-06-18T05:48:16.150Z,99.90
2017-06-18T05:50:44.490Z,99.90
2017-06-18T05:53:12.810Z,99.90
2017-06-18T05:55:41.140Z,99.90
2017-06-18T05:58:09.447Z,99.90
2017-06-18T06:00:37.814Z,99.90
2017-06-18T06:03:06.940Z,99.90
2017-06-18T06:05:35.368Z,99.90
2017-06-18T06:08:03.662Z,99.90
2017-06-18T06:10:32.022Z,99.90
2017-06-18T06:13:00.336Z,99.90
2017-06-18T06:15:28.652Z,99.90
2017-06-18T06:17:57.002Z,99.90
2017-06-18T06:20:25.327Z,99.90
2017-06-18T06:22:53.662Z,99.90
2017-06-18T06:25:21.980Z,99.90
2017-06-18T06:27:50.316Z,99.90
2017-06-18T06:30:18.652Z,99.90
2017-06-18T06:32:47.739Z,99.90
2017-06-18T06:35:16.134Z,99.90
2017-06-18T06:37:45.228Z,99.90
2017-06-18T06:40:14.389Z,99.90
2017-06-18T06:42:42.715Z,99.90
2017-06-18T06:45:11.096Z,99.90
2017-06-18T06:47:39.458Z,99.90
2017-06-18T06:50:07.805Z,99.90
2017-06-18T06:52:36.517Z,99.90
2017-06-18T06:55:05.625Z,99.90
2017-06-18T06:57:33.941Z,99.90
2017-06-18T07:00:02.258Z,99.90
2017-06-18T07:02:31.381Z,99.90
2017-06-18T07:04:59.687Z,99.90
2017-06-18T07:07:28.038Z,99.90
2017-06-18T07:09:56.420Z,99.90
2017-06-18T07:12:24.748Z,99.90
2017-06-18T07:14:53.116Z,99.90
2017-06-18T07:17:21.463Z,99.90
2017-06-18T07:19:49.796Z,99.90
2017-06-18T07:22:18.887Z,99.90
2017-06-18T07:24:47.214Z,99.90
2017-06-18T07:27:15.524Z,99.90
2017-06-18T07:29:43.861Z,99.90
2017-06-18T07:32:12.182Z,99.90
2017-06-18T07:34:40.551Z,99.90
2017-06-18T07:37:08.850Z,99.90
2017-06-18T07:39:37.983Z,99.90
2017-06-18T07:42:06.293Z,99.90
2017-06-18T07:44:34.621Z,99.90
2017-06-18T07:47:02.965Z,99.90
2017-06-18T07:49:31.288Z,99.90
2017-06-18T07:51:59.609Z,99.90
2017-06-18T07:54:27.921Z,99.90
2017-06-18T07:56:56.260Z,99.90
2017-06-18T07:59:24.584Z,99.90
2017-06-18T08:01:52.880Z,99.90
2017-06-18T08:04:21.221Z,99.90
2017-06-18T08:06:49.522Z,99.90
2017-06-18T08:09:17.843Z,99.90
2017-06-18T08:11:46.149Z,99.90
2017-06-18T08:14:14.489Z,99.90
2017-06-18T08:16:42.795Z,99.90
2017-06-18T08:19:11.891Z,99.90
2017-06-18T08:21:40.959Z,99.90
2017-06-18T08:24:09.325Z,99.90
2017-06-18T08:26:37.656Z,99.90
2017-06-18T08:29:05.961Z,99.90
2017-06-18T08:31:34.488Z,99.90
2017-06-18T08:34:02.785Z,99.90
2017-06-18T08:36:31.901Z,99.90
2017-06-18T08:39:00.235Z,99.90
2017-06-18T08:41:28.552Z,99.90
2017-06-18T08:43:56.848Z,99.90
2017-06-18T08:46:25.184Z,99.90
2017-06-18T08:48:53.488Z,99.90
2017-06-18T08:51:21.813Z,99.90
2017-06-18T08:53:50.156Z,99.90
2017-06-18T08:56:18.476Z,99.90
2017-06-18T08:58:46.844Z,99.90
2017-06-18T09:01:15.164Z,99.90
2017-06-18T09:03:43.464Z,99.90
2017-06-18T09:06:11.793Z,99.90
2017-06-18T09:08:41.059Z,99.90
2017-06-18T09:11:09.357Z,99.90
2017-06-18T09:13:37.693Z,99.90
2017-06-18T09:16:08.760Z,99.90
2017-06-18T09:18:40.253Z,99.90
2017-06-18T09:21:09.407Z,99.90
2017-06-18T09:23:37.957Z,99.90
2017-06-18T09:26:09.218Z,99.90
2017-06-18T09:28:37.954Z,99.90
2017-06-18T09:31:07.020Z,99.90
2017-06-18T09:33:38.193Z,99.90
2017-06-18T09:36:06.521Z,99.90
2017-06-18T09:38:37.798Z,99.90
2017-06-18T09:41:06.121Z,99.90
2017-06-18T09:43:34.731Z,99.90
2017-06-18T09:46:03.323Z,99.90
2017-06-18T09:48:31.942Z,99.90
2017-06-18T09:51:00.407Z,99.90
2017-06-18T09:53:28.972Z,99.90
2017-06-18T09:55:57.936Z,99.90
2017-06-18T09:58:26.649Z,99.90
2017-06-18T10:00:56.292Z,99.90
2017-06-18T10:03:24.849Z,99.90
2017-06-18T10:05:54.275Z,99.90
2017-06-18T10:08:23.026Z,99.90
2017-06-18T10:10:51.557Z,99.90
2017-06-18T10:13:19.919Z,99.90
2017-06-18T10:15:48.229Z,99.90
2017-06-18T10:18:16.582Z,99.90
2017-06-18T10:20:44.883Z,99.90
2017-06-18T10:23:18.971Z,99.90
2017-06-18T10:25:47.320Z,99.90
2017-06-18T10:28:15.683Z,99.90
2017-06-18T10:30:44.005Z,99.90
2017-06-18T10:33:12.432Z,99.90
2017-06-18T10:35:40.728Z,99.90
2017-06-18T10:38:09.080Z,99.90
2017-06-18T10:40:37.392Z,99.90
2017-06-18T10:43:06.497Z,99.90
2017-06-18T10:45:34.919Z,99.90
2017-06-18T10:48:03.387Z,99.90
2017-06-18T10:50:32.102Z,99.90
2017-06-18T10:53:00.739Z,99.90
2017-06-18T10:55:29.371Z,99.90
2017-06-18T10:57:58.040Z,99.90
2017-06-18T11:00:26.388Z,99.90
2017-06-18T11:02:54.722Z,99.90
2017-06-18T11:05:23.053Z,99.90
2017-06-18T11:07:51.362Z,99.70
2017-06-18T11:10:19.697Z,99.90
2017-06-18T11:12:48.001Z,99.90
2017-06-18T11:15:16.377Z,99.00
2017-06-18T11:17:44.676Z,98.20
2017-06-18T11:20:13.017Z,97.90
2017-06-18T11:22:41.468Z,98.10
2017-06-18T11:25:10.548Z,99.10
2017-06-18T11:27:38.950Z,99.00
2017-06-18T11:30:07.260Z,96.80
2017-06-18T11:32:36.057Z,96.80
2017-06-18T11:35:04.381Z,96.20
2017-06-18T11:37:32.721Z,94.60
2017-06-18T11:40:01.062Z,94.80
2017-06-18T11:42:29.429Z,96.10
2017-06-18T11:44:57.738Z,96.60
2017-06-18T11:47:26.101Z,95.40
2017-06-18T11:49:54.394Z,95.60
2017-06-18T11:52:22.727Z,93.80
2017-06-18T11:54:51.059Z,93.70
2017-06-18T11:57:19.441Z,94.10
2017-06-18T11:59:47.752Z,95.10
2017-06-18T12:02:16.898Z,93.00
2017-06-18T12:04:45.210Z,92.90
2017-06-18T12:07:13.522Z,93.20
2017-06-18T12:09:42.068Z,92.80
2017-06-18T12:12:10.400Z,92.30
2017-06-18T12:14:38.720Z,91.60
2017-06-18T12:17:07.820Z,91.90
2017-06-18T12:19:36.998Z,90.70
2017-06-18T12:22:05.321Z,90.70
2017-06-18T12:24:33.645Z,90.40
2017-06-18T12:27:02.000Z,87.00
2017-06-18T12:29:30.328Z,88.90
2017-06-18T12:31:59.464Z,83.60
2017-06-18T12:34:27.816Z,83.50
2017-06-18T12:36:56.145Z,85.00
2017-06-18T12:39:24.502Z,86.80
2017-06-18T12:41:52.804Z,88.70
2017-06-18T12:44:21.111Z,89.30
2017-06-18T12:46:49.430Z,92.60
2017-06-18T12:49:17.765Z,93.00
2017-06-18T12:51:46.838Z,94.60
2017-06-18T12:54:15.165Z,94.60
2017-06-18T12:56:43.473Z,92.10
2017-06-18T12:59:11.825Z,92.10
2017-06-18T13:01:40.165Z,90.30
2017-06-18T13:04:08.514Z,90.90
2017-06-18T13:06:36.821Z,88.80
2017-06-18T13:09:05.910Z,89.00
2017-06-18T13:11:34.995Z,85.90
2017-06-18T13:14:04.104Z,81.20
2017-06-18T13:16:33.196Z,80.00
2017-06-18T13:19:02.321Z,75.90
2017-06-18T13:21:30.653Z,75.70
2017-06-18T13:23:59.739Z,80.10
2017-06-18T13:26:28.165Z,79.80
2017-06-18T13:28:56.556Z,78.80
2017-06-18T13:31:24.857Z,77.90
2017-06-18T13:33:53.189Z,73.80
2017-06-18T13:36:21.561Z,79.30
2017-06-18T13:38:49.868Z,78.10
2017-06-18T13:41:18.181Z,79.30
2017-06-18T13:43:46.699Z,80.20
2017-06-18T13:46:15.017Z,84.90
2017-06-18T13:48:43.325Z,86.80
2017-06-18T13:51:12.427Z,90.10
2017-06-18T13:53:41.514Z,90.50
2017-06-18T13:56:09.874Z,90.20
2017-06-18T13:58:38.208Z,87.40
2017-06-18T14:01:06.572Z,89.30
2017-06-18T14:03:34.909Z,89.80
2017-06-18T14:06:03.228Z,78.40
2017-06-18T14:08:31.545Z,78.10
2017-06-18T14:10:59.877Z,75.40
2017-06-18T14:13:28.233Z,70.40
2017-06-18T14:15:57.325Z,73.20
2017-06-18T14:18:25.593Z,76.80
2017-06-18T14:20:53.950Z,76.70
2017-06-18T14:23:22.289Z,79.10
2017-06-18T14:25:50.620Z,82.40
2017-06-18T14:28:18.937Z,86.10
2017-06-18T14:30:47.257Z,83.30
2017-06-18T14:33:15.731Z,81.50
2017-06-18T14:35:44.054Z,81.60
2017-06-18T14:38:13.219Z,85.10
2017-06-18T14:40:41.517Z,84.00
2017-06-18T14:43:09.871Z,85.20
2017-06-18T14:45:38.202Z,85.00
2017-06-18T14:48:06.925Z,83.20
2017-06-18T14:50:35.245Z,83.90
2017-06-18T14:53:04.341Z,85.40
2017-06-18T14:55:32.648Z,85.30
2017-06-18T14:58:01.093Z,85.40
2017-06-18T15:00:29.396Z,85.30
2017-06-18T15:02:57.733Z,86.10
2017-06-18T15:05:26.027Z,84.60
2017-06-18T15:07:54.393Z,84.30
2017-06-18T15:10:22.719Z,85.50
2017-06-18T15:12:51.035Z,85.80
2017-06-18T15:15:19.365Z,88.40
2017-06-18T15:17:47.680Z,87.40
2017-06-18T15:20:15.985Z,86.70
2017-06-18T15:22:45.099Z,85.30
2017-06-18T15:25:13.444Z,85.20
2017-06-18T15:27:41.789Z,87.40
2017-06-18T15:30:10.147Z,86.30
2017-06-18T15:32:38.457Z,86.00
2017-06-18T15:35:07.581Z,86.00
2017-06-18T15:37:35.935Z,83.10
2017-06-18T15:40:04.239Z,84.00
2017-06-18T15:42:33.340Z,86.60
2017-06-18T15:45:01.656Z,86.50
2017-06-18T15:47:30.036Z,87.00
2017-06-18T15:49:58.377Z,88.20
2017-06-18T15:52:26.807Z,84.00
2017-06-18T15:54:55.178Z,84.90
2017-06-18T15:57:23.487Z,83.20
2017-06-18T15:59:52.583Z,88.70
2017-06-18T16:02:22.299Z,83.20
2017-06-18T16:04:50.649Z,83.80
2017-06-18T16:07:18.956Z,86.60
2017-06-18T16:09:47.284Z,84.40
2017-06-18T16:12:15.597Z,84.70
2017-06-18T16:14:43.945Z,83.50
2017-06-18T16:17:12.271Z,83.80
2017-06-18T16:19:40.585Z,82.60
2017-06-18T16:22:08.942Z,83.80
2017-06-18T16:24:37.257Z,87.70
2017-06-18T16:27:05.616Z,86.30
2017-06-18T16:29:33.916Z,86.70
2017-06-18T16:32:02.297Z,86.10
2017-06-18T16:34:30.637Z,85.10
2017-06-18T16:36:58.950Z,85.70
2017-06-18T16:39:28.008Z,86.30
2017-06-18T16:41:56.321Z,86.00
2017-06-18T16:44:24.629Z,87.10
2017-06-18T16:46:53.746Z,89.20
2017-06-18T16:49:22.057Z,89.00
2017-06-18T16:51:50.394Z,92.60
2017-06-18T16:54:18.720Z,92.90
2017-06-18T16:56:47.021Z,94.50
2017-06-18T16:59:15.361Z,94.50
2017-06-18T17:01:43.672Z,94.70
2017-06-18T17:04:12.019Z,94.70
2017-06-18T17:06:40.321Z,94.40
2017-06-18T17:09:08.621Z,95.00
2017-06-18T17:11:36.941Z,94.90
2017-06-18T17:14:06.195Z,95.30
2017-06-18T17:16:34.500Z,95.80
2017-06-18T17:19:02.927Z,96.20
2017-06-18T17:21:36.860Z,97.50
2017-06-18T17:24:05.985Z,97.10
2017-06-18T17:26:34.307Z,97.20
2017-06-18T17:29:02.617Z,97.60
2017-06-18T17:31:30.969Z,97.80
2017-06-18T17:34:00.113Z,98.30
2017-06-18T17:36:28.454Z,98.50
2017-06-18T17:38:56.760Z,98.70
2017-06-18T17:41:25.089Z,99.20
2017-06-18T17:43:53.550Z,99.30
2017-06-18T17:46:21.918Z,99.70
2017-06-18T17:48:50.234Z,99.90
2017-06-18T17:51:18.528Z,99.90
2017-06-18T17:53:46.849Z,99.90
2017-06-18T17:56:15.165Z,99.90
2017-06-18T17:58:43.508Z,99.90
2017-06-18T18:01:11.823Z,99.90
2017-06-18T18:03:40.903Z,99.90
2017-06-18T18:06:09.323Z,99.90
2017-06-18T18:08:37.632Z,99.90
2017-06-18T18:11:05.981Z,99.90
2017-06-18T18:13:34.292Z,99.90
2017-06-18T18:16:02.609Z,99.90
2017-06-18T18:18:30.969Z,99.90
2017-06-18T18:21:00.080Z,99.90
2017-06-18T18:23:28.428Z,99.90
2017-06-18T18:25:56.749Z,99.90
2017-06-18T18:28:25.077Z,99.90
2017-06-18T18:30:53.399Z,99.90
2017-06-18T18:33:21.750Z,99.90
2017-06-18T18:35:50.458Z,99.90
2017-06-18T18:38:18.782Z,99.90
2017-06-18T18:40:47.125Z,99.90
2017-06-18T18:43:15.465Z,99.90
2017-06-18T18:45:43.917Z,99.90
2017-06-18T18:48:12.253Z,99.90
2017-06-18T18:50:40.630Z,99.90
2017-06-18T18:53:08.950Z,99.90
2017-06-18T18:55:37.266Z,99.90
2017-06-18T18:58:05.606Z,99.90
2017-06-18T19:00:33.920Z,99.90
2017-06-18T19:03:02.310Z,99.90
2017-06-18T19:05:30.678Z,99.90
2017-06-18T19:07:58.999Z,99.90
2017-06-18T19:10:27.355Z,99.90
2017-06-18T19:12:55.657Z,99.90
2017-06-18T19:15:24.004Z,99.90
2017-06-18T19:17:52.306Z,99.90
2017-06-18T19:20:20.630Z,99.90
2017-06-18T19:22:49.734Z,99.90
2017-06-18T19:25:18.829Z,99.90
2017-06-18T19:27:47.231Z,99.90
2017-06-18T19:30:15.566Z,99.90
2017-06-18T19:32:43.887Z,99.90
2017-06-18T19:35:12.235Z,99.90
2017-06-18T19:37:40.591Z,99.90
2017-06-18T19:40:08.901Z,99.90
2017-06-18T19:42:37.653Z,99.90
2017-06-18T19:45:05.952Z,99.90
2017-06-18T19:47:34.292Z,99.90
2017-06-18T19:50:02.612Z,99.90
2017-06-18T19:52:31.710Z,99.90
2017-06-18T19:55:00.033Z,99.90
2017-06-18T19:57:28.361Z,99.90
2017-06-18T19:59:56.723Z,99.90
2017-06-18T20:02:25.036Z,99.90
2017-06-18T20:04:53.356Z,99.90
2017-06-18T20:07:21.677Z,99.90
2017-06-18T20:09:50.015Z,99.90
2017-06-18T20:12:18.401Z,99.90
2017-06-18T20:14:47.495Z,99.90
2017-06-18T20:17:16.618Z,99.90
2017-06-18T20:19:44.941Z,99.90
2017-06-18T20:22:13.255Z,99.90
2017-06-18T20:24:41.685Z,99.90
2017-06-18T20:27:10.389Z,99.90
2017-06-18T20:29:38.724Z,99.90
2017-06-18T20:32:07.042Z,99.90
2017-06-18T20:34:35.389Z,99.90
2017-06-18T20:37:03.717Z,99.90
2017-06-18T20:39:32.802Z,99.90
2017-06-18T20:42:01.136Z,99.90
2017-06-18T20:44:29.486Z,99.90
2017-06-18T20:46:57.820Z,99.90
2017-06-18T20:49:26.124Z,99.90
2017-06-18T20:51:55.358Z,99.90
2017-06-18T20:54:23.721Z,99.90
2017-06-18T20:56:52.048Z,99.90
2017-06-18T20:59:20.390Z,99.90
2017-06-18T21:01:48.725Z,99.90
2017-06-18T21:04:17.847Z,99.90
2017-06-18T21:06:46.163Z,99.90
2017-06-18T21:09:14.497Z,99.90
2017-06-18T21:11:42.892Z,99.90
2017-06-18T21:14:11.209Z,99.90
2017-06-18T21:16:39.548Z,99.90
2017-06-18T21:19:07.953Z,99.90
2017-06-18T21:21:36.261Z,99.90
2017-06-18T21:24:05.373Z,99.90
2017-06-18T21:26:34.562Z,99.90
2017-06-18T21:29:02.874Z,99.90
2017-06-18T21:31:31.206Z,99.90
2017-06-18T21:34:00.382Z,99.90
2017-06-18T21:36:28.727Z,99.90
2017-06-18T21:38:57.039Z,99.90
2017-06-18T21:41:25.377Z,99.90
2017-06-18T21:43:53.676Z,99.90
2017-06-18T21:46:22.065Z,99.90
2017-06-18T21:48:50.390Z,99.90
2017-06-18T21:51:18.739Z,99.90
2017-06-18T21:53:47.043Z,99.90
2017-06-18T21:56:16.141Z,99.90
2017-06-18T21:58:44.443Z,99.90
2017-06-18T22:01:12.781Z,99.90
2017-06-18T22:03:41.862Z,99.90
2017-06-18T22:06:10.259Z,99.90
2017-06-18T22:08:38.591Z,99.90
2017-06-18T22:11:06.897Z,99.90
2017-06-18T22:13:35.984Z,99.90
2017-06-18T22:16:04.293Z,99.90
2017-06-18T22:18:32.632Z,99.90
2017-06-18T22:21:00.941Z,99.90
2017-06-18T22:23:29.260Z,99.90
2017-06-18T22:25:57.610Z,99.90
2017-06-18T22:28:25.922Z,99.90
2017-06-18T22:30:54.223Z,99.90
2017-06-18T22:33:22.564Z,99.90
2017-06-18T22:35:50.866Z,99.90
2017-06-18T22:38:19.230Z,99.90
2017-06-18T22:40:47.525Z,99.90
2017-06-18T22:43:15.878Z,99.90
2017-06-18T22:45:44.176Z,99.90
2017-06-18T22:48:12.642Z,99.90
2017-06-18T22:50:40.966Z,99.90
2017-06-18T22:53:09.308Z,99.90
2017-06-18T22:55:37.609Z,99.90
2017-06-18T22:58:05.915Z,99.90
2017-06-18T23:00:34.240Z,99.90
2017-06-18T23:03:02.554Z,99.90
2017-06-18T23:05:31.292Z,99.90
2017-06-18T23:07:59.593Z,99.90
2017-06-18T23:10:28.655Z,99.90
2017-06-18T23:12:56.990Z,99.90
2017-06-18T23:15:25.334Z,99.90
2017-06-18T23:17:54.038Z,99.90
2017-06-18T23:20:22.392Z,99.90
2017-06-18T23:22:50.712Z,99.90
2017-06-18T23:25:19.425Z,99.90
2017-06-18T23:27:47.774Z,99.90
2017-06-18T23:30:16.070Z,99.90
2017-06-18T23:32:44.409Z,99.90
2017-06-18T23:35:13.109Z,99.90
2017-06-18T23:37:41.856Z,99.90
2017-06-18T23:40:10.941Z,99.90
2017-06-18T23:42:39.261Z,99.90
2017-06-18T23:45:07.620Z,99.90
2017-06-18T23:47:35.921Z,99.90
2017-06-18T23:50:04.274Z,99.90
2017-06-18T23:52:33.352Z,99.90
2017-06-18T23:55:01.676Z,99.90
2017-06-18T23:57:30.788Z,99.90
2017-06-18T23:59:59.117Z,99.90
